Time;durP1;ratioP1;P1;durP2;ratioP2;P2;SDS_P1;SDS_P2;PMS_P1;PMS_P2;Temp;Humidity;BMP_temperature;BMP_pressure;BME280_temperature;BME280_humidity;BME280_pressure;Samples;Min_cycle;Max_cycle;Signal;HPM_P1;HPM_P2
2022/07/09 00:00:46;;;;;;;3.25;1.55;;;;;;;22.06;52.56;102798.00;5067411;28;20074;-60
2022/07/09 00:03:12;;;;;;;1.52;1.20;;;;;;;22.11;52.80;102802.97;5065572;28;20083;-60
2022/07/09 00:05:37;;;;;;;2.28;1.48;;;;;;;22.10;52.83;102799.44;5067480;28;20029;-60
2022/07/09 00:08:02;;;;;;;3.22;1.98;;;;;;;22.08;52.67;102804.13;5067038;28;20057;-60
2022/07/09 00:10:28;;;;;;;2.05;1.60;;;;;;;22.08;52.65;102801.41;5067663;28;20060;-60
2022/07/09 00:12:53;;;;;;;2.78;1.60;;;;;;;22.08;52.33;102787.00;5065813;28;20033;-60
2022/07/09 00:15:18;;;;;;;1.40;1.23;;;;;;;21.86;52.71;102764.66;5067275;28;20036;-60
2022/07/09 00:17:43;;;;;;;2.30;1.30;;;;;;;22.07;52.70;102799.69;5065318;28;20029;-60
2022/07/09 00:20:09;;;;;;;2.85;1.40;;;;;;;22.05;52.38;102799.00;5067175;28;20501;-59
2022/07/09 00:22:35;;;;;;;2.03;1.40;;;;;;;22.06;52.39;102805.28;5065656;28;20016;-60
2022/07/09 00:25:01;;;;;;;2.65;1.58;;;;;;;22.05;52.47;102800.88;5067134;28;20025;-60
2022/07/09 00:27:26;;;;;;;2.17;1.40;;;;;;;22.05;52.48;102809.00;5082362;28;20035;-60
2022/07/09 00:29:51;;;;;;;3.05;1.48;;;;;;;22.04;52.29;102801.84;5085844;28;20017;-60
2022/07/09 00:32:18;;;;;;;3.40;1.45;;;;;;;22.02;52.23;102804.69;5084913;28;20029;-60
2022/07/09 00:34:43;;;;;;;1.98;1.38;;;;;;;22.03;52.21;102794.72;5085769;28;20040;-60
2022/07/09 00:37:09;;;;;;;2.60;1.30;;;;;;;21.80;52.17;102756.25;5086492;28;20036;-60
2022/07/09 00:39:34;;;;;;;3.30;1.42;;;;;;;22.02;52.34;102793.88;5085798;28;20024;-60
2022/07/09 00:42:04;;;;;;;2.38;1.75;;;;;;;22.02;51.94;102795.72;5085233;28;20073;-60
2022/07/09 00:44:29;;;;;;;2.10;1.20;;;;;;;22.01;51.88;102789.47;5085746;28;20050;-60
2022/07/09 00:46:54;;;;;;;2.00;1.10;;;;;;;22.00;51.82;102782.31;5068039;28;20123;-60
2022/07/09 00:49:19;;;;;;;1.65;1.10;;;;;;;21.79;52.12;102741.88;5086635;28;20027;-60
2022/07/09 00:51:45;;;;;;;3.22;1.55;;;;;;;21.99;51.99;102782.47;5086150;28;20040;-60
2022/07/09 00:54:10;;;;;;;2.70;1.60;;;;;;;21.99;51.80;102767.06;5085305;28;20028;-60
2022/07/09 00:56:35;;;;;;;1.58;1.08;;;;;;;21.98;51.69;102762.66;5068149;28;20048;-60
2022/07/09 00:59:01;;;;;;;2.63;1.15;;;;;;;21.96;51.62;102768.22;5085231;28;20059;-60
2022/07/09 01:01:27;;;;;;;1.23;1.10;;;;;;;21.77;51.62;102735.72;5081580;28;20017;-60
2022/07/09 01:03:52;;;;;;;2.13;1.10;;;;;;;21.94;51.51;102758.53;5073762;28;20084;-59
2022/07/09 01:06:17;;;;;;;2.55;1.10;;;;;;;21.77;51.32;102722.19;5080956;28;20025;-60
2022/07/09 01:08:42;;;;;;;1.65;1.30;;;;;;;21.75;51.42;102726.91;5065948;28;20025;-60
2022/07/09 01:11:08;;;;;;;1.52;0.90;;;;;;;21.94;51.35;102758.53;5076068;28;20031;-60
2022/07/09 01:13:33;;;;;;;2.47;1.17;;;;;;;21.75;51.31;102726.91;5085745;28;20054;-59
2022/07/09 01:15:58;;;;;;;2.03;1.42;;;;;;;21.92;51.00;102750.56;5084537;28;20037;-60
2022/07/09 01:18:23;;;;;;;1.40;1.10;;;;;;;21.92;51.16;102747.00;5084280;28;20020;-60
2022/07/09 01:20:49;;;;;;;2.20;1.45;;;;;;;21.91;51.43;102742.56;5048115;28;20386;-60
2022/07/09 01:23:14;;;;;;;2.63;0.90;;;;;;;21.89;51.44;102731.03;5047612;28;20039;-59
2022/07/09 01:25:43;;;;;;;0.95;0.80;;;;;;;21.91;51.11;102745.25;5047699;28;20024;-59
2022/07/09 01:28:09;;;;;;;1.48;1.20;;;;;;;21.90;51.28;102744.41;5064304;28;20028;-60
2022/07/09 01:30:36;;;;;;;1.98;1.10;;;;;;;21.67;51.38;102708.66;5064539;28;20447;-60
2022/07/09 01:33:01;;;;;;;1.67;1.30;;;;;;;21.89;51.55;102750.84;5047200;28;20025;-60
2022/07/09 01:35:27;;;;;;;2.28;1.38;;;;;;;21.89;51.35;102756.25;5064413;28;20033;-61
2022/07/09 01:37:53;;;;;;;1.85;1.27;;;;;;;21.89;51.44;102752.69;5084673;28;20037;-61
2022/07/09 01:40:19;;;;;;;1.98;1.33;;;;;;;21.88;51.01;102746.41;5085900;28;20066;-61
2022/07/09 01:42:44;;;;;;;1.77;1.13;;;;;;;21.69;51.04;102713.94;5085147;28;20017;-60
2022/07/09 01:45:10;;;;;;;1.63;0.93;;;;;;;21.87;51.25;102733.84;5084737;28;20029;-61
2022/07/09 01:47:36;;;;;;;2.92;1.33;;;;;;;21.87;50.94;102735.72;5083681;28;20115;-61
2022/07/09 01:50:01;;;;;;;2.45;1.10;;;;;;;21.88;51.29;102727.47;5084351;28;20040;-61
2022/07/09 01:52:28;;;;;;;1.67;0.90;;;;;;;21.86;51.08;102726.75;5083964;28;20052;-60
2022/07/09 01:54:53;;;;;;;3.22;1.30;;;;;;;21.83;50.85;102712.63;5085337;28;20052;-61
2022/07/09 01:57:19;;;;;;;1.58;1.08;;;;;;;21.85;51.19;102722.31;5084893;28;20033;-61
2022/07/09 01:59:44;;;;;;;2.55;1.05;;;;;;;21.84;50.84;102717.91;5085418;28;20021;-61
2022/07/09 02:02:09;;;;;;;1.83;0.90;;;;;;;21.84;50.68;102725.19;5084804;28;20669;-60
2022/07/09 02:04:34;;;;;;;1.02;0.90;;;;;;;21.83;50.85;102729.72;5085299;28;20029;-60
2022/07/09 02:07:00;;;;;;;1.42;1.02;;;;;;;21.83;50.91;102731.59;5085106;28;20032;-61
2022/07/09 02:09:25;;;;;;;1.63;0.88;;;;;;;21.81;50.51;102728.19;5083939;28;20462;-61
2022/07/09 02:11:50;;;;;;;1.77;1.02;;;;;;;21.80;50.27;102738.16;5066238;28;20033;-60
2022/07/09 02:14:16;;;;;;;1.17;0.88;;;;;;;21.81;50.55;102733.59;5047461;28;20067;-60
2022/07/09 02:16:42;;;;;;;1.27;0.80;;;;;;;21.80;50.64;102738.16;5063584;28;20158;-60
2022/07/09 02:19:07;;;;;;;1.92;0.93;;;;;;;21.79;50.35;102735.56;5064516;28;20032;-60
2022/07/09 02:21:33;;;;;;;0.98;0.85;;;;;;;21.54;50.61;102699.13;5063603;28;20025;-60
2022/07/09 02:23:58;;;;;;;2.92;0.80;;;;;;;21.77;50.53;102735.72;5065025;28;20039;-60
2022/07/09 02:26:29;;;;;;;1.35;0.80;;;;;;;21.52;50.47;102693.84;5064731;28;20036;-60
2022/07/09 02:28:55;;;;;;;1.67;1.00;;;;;;;21.76;50.25;102728.63;5063378;28;20073;-60
2022/07/09 02:31:20;;;;;;;1.15;0.90;;;;;;;21.75;50.51;102729.63;5063664;28;20021;-60
2022/07/09 02:33:45;;;;;;;1.77;0.93;;;;;;;21.76;50.20;102728.63;5063338;28;20468;-61
2022/07/09 02:36:11;;;;;;;1.52;1.00;;;;;;;21.76;50.16;102727.75;5063697;28;20025;-60
2022/07/09 02:38:36;;;;;;;1.00;0.90;;;;;;;21.54;50.16;102691.88;5064622;28;20029;-61
2022/07/09 02:41:01;;;;;;;1.60;1.00;;;;;;;21.74;50.71;102727.03;5063878;28;20406;-60
2022/07/09 02:43:27;;;;;;;1.13;1.00;;;;;;;21.74;50.57;102741.41;5064170;28;20157;-61
2022/07/09 02:45:55;;;;;;;1.35;1.00;;;;;;;21.51;50.33;102694.00;5064732;28;20032;-60
2022/07/09 02:48:25;;;;;;;1.55;0.90;;;;;;;21.74;50.25;102729.75;5064229;28;20092;-61
2022/07/09 02:50:50;;;;;;;1.52;0.98;;;;;;;21.53;50.14;102694.69;5063834;28;20052;-60
2022/07/09 02:53:15;;;;;;;2.35;0.80;;;;;;;21.48;50.60;102692.41;5064683;28;20029;-60
2022/07/09 02:55:41;;;;;;;1.60;1.00;;;;;;;21.70;50.54;102735.44;5046721;28;20032;-61
2022/07/09 02:58:06;;;;;;;1.08;0.95;;;;;;;21.71;50.37;102734.47;5046509;28;20124;-61
2022/07/09 03:00:31;;;;;;;2.20;0.95;;;;;;;21.52;50.12;102693.00;5064662;28;20029;-61
2022/07/09 03:02:56;;;;;;;1.30;0.95;;;;;;;21.69;50.35;102730.19;5062848;28;20051;-61
2022/07/09 03:05:22;;;;;;;1.33;1.23;;;;;;;21.69;50.59;102732.88;5064803;28;20421;-61
2022/07/09 03:07:47;;;;;;;1.48;0.98;;;;;;;21.69;50.45;102727.47;5064961;28;20029;-61
2022/07/09 03:10:12;;;;;;;1.58;1.00;;;;;;;21.70;50.90;102723.75;5055248;28;20020;-60
2022/07/09 03:12:38;;;;;;;1.10;1.00;;;;;;;21.65;50.80;102710.66;5086576;28;20142;-61
2022/07/09 03:15:04;;;;;;;1.70;0.95;;;;;;;21.52;50.89;102696.56;5088766;28;20036;-60
2022/07/09 03:17:29;;;;;;;1.65;1.20;;;;;;;21.70;50.64;102734.59;5086413;28;20028;-61
2022/07/09 03:19:54;;;;;;;1.60;1.38;;;;;;;21.66;50.92;102720.50;5088191;28;20024;-61
2022/07/09 03:22:20;;;;;;;4.40;1.38;;;;;;;21.66;51.02;102714.22;5088148;28;20447;-60
2022/07/09 03:24:45;;;;;;;1.48;1.13;;;;;;;21.48;50.77;102680.75;5087385;28;20071;-60
2022/07/09 03:27:10;;;;;;;1.98;1.20;;;;;;;21.51;50.96;102684.03;5086808;28;20084;-60
2022/07/09 03:29:36;;;;;;;1.75;1.40;;;;;;;21.67;50.75;102714.09;5088168;28;20025;-60
2022/07/09 03:32:01;;;;;;;1.90;1.23;;;;;;;21.69;51.22;102724.75;5087582;28;20056;-60
2022/07/09 03:34:26;;;;;;;2.67;1.45;;;;;;;21.50;51.25;102686.88;5086525;28;20024;-60
2022/07/09 03:36:51;;;;;;;2.40;1.50;;;;;;;21.68;50.94;102725.75;5087839;28;20025;-60
2022/07/09 03:39:17;;;;;;;3.00;1.42;;;;;;;21.66;51.33;102712.38;5086820;28;20474;-60
2022/07/09 03:41:42;;;;;;;2.00;1.50;;;;;;;21.67;51.28;102708.66;5087628;28;20046;-60
2022/07/09 03:44:07;;;;;;;2.70;1.27;;;;;;;21.61;51.13;102709.22;5087670;28;20040;-60
2022/07/09 03:46:33;;;;;;;2.50;1.77;;;;;;;21.66;51.23;102715.09;5087590;28;20086;-60
2022/07/09 03:48:58;;;;;;;2.63;1.40;;;;;;;21.60;51.23;102702.09;5087259;28;20020;-60
2022/07/09 03:51:23;;;;;;;2.78;1.45;;;;;;;21.66;51.46;102714.22;5087517;28;20024;-60
2022/07/09 03:53:48;;;;;;;2.28;1.77;;;;;;;21.48;50.96;102678.03;5087518;28;20080;-60
2022/07/09 03:56:14;;;;;;;1.40;1.23;;;;;;;21.66;51.30;102706.09;5086308;28;20031;-59
2022/07/09 03:58:40;;;;;;;2.20;1.40;;;;;;;21.65;51.27;102710.66;5069388;28;20485;-60
2022/07/09 04:01:05;;;;;;;2.03;1.35;;;;;;;21.66;51.40;102711.50;5087777;28;20034;-60
2022/07/09 04:03:30;;;;;;;2.85;1.55;;;;;;;21.61;51.67;102697.53;5086016;28;20033;-60
2022/07/09 04:05:55;;;;;;;3.42;1.95;;;;;;;21.45;51.55;102662.94;5087521;28;20028;-60
2022/07/09 04:08:21;;;;;;;2.40;1.70;;;;;;;21.66;51.44;102700.66;5087004;28;20076;-60
2022/07/09 04:10:46;;;;;;;2.05;1.50;;;;;;;21.34;51.31;102644.16;5077781;28;20032;-60
2022/07/09 04:13:11;;;;;;;2.40;1.63;;;;;;;21.64;51.48;102689.16;5049055;28;20029;-60
2022/07/09 04:15:37;;;;;;;3.47;1.92;;;;;;;21.63;51.28;102685.59;5067331;28;20052;-60
2022/07/09 04:18:02;;;;;;;2.78;1.75;;;;;;;21.64;51.63;102689.16;5048407;28;20036;-60
2022/07/09 04:20:27;;;;;;;3.55;1.60;;;;;;;21.64;51.59;102687.28;5066442;28;20056;-60
2022/07/09 04:22:52;;;;;;;3.35;1.38;;;;;;;21.42;51.48;102650.56;5066855;28;20123;-60
2022/07/09 04:25:18;;;;;;;2.60;1.58;;;;;;;21.63;51.70;102677.47;5067083;28;20025;-60
2022/07/09 04:27:43;;;;;;;1.88;1.60;;;;;;;21.64;51.69;102692.72;5065139;28;20088;-60
2022/07/09 04:30:10;;;;;;;2.70;1.60;;;;;;;21.63;51.38;102682.88;5065773;28;20028;-60
2022/07/09 04:32:35;;;;;;;2.88;1.83;;;;;;;21.41;51.61;102651.56;5064896;28;20052;-60
2022/07/09 04:35:01;;;;;;;2.03;1.60;;;;;;;21.61;51.80;102684.00;5067002;28;20028;-60
2022/07/09 04:37:26;;;;;;;3.78;2.00;;;;;;;21.64;51.81;102692.72;5066653;28;20036;-60
2022/07/09 04:39:51;;;;;;;3.15;2.10;;;;;;;21.61;51.27;102690.28;5065609;28;20029;-60
2022/07/09 04:42:17;;;;;;;2.65;1.80;;;;;;;21.44;51.58;102647.69;5066321;28;20047;-60
2022/07/09 04:44:42;;;;;;;1.77;1.52;;;;;;;21.45;51.52;102638.56;5048784;28;20049;-60
2022/07/09 04:47:09;;;;;;;2.88;1.95;;;;;;;21.61;51.43;102671.31;5065958;28;20048;-60
2022/07/09 04:49:34;;;;;;;3.72;2.00;;;;;;;21.63;51.54;102672.06;5066586;28;20075;-61
2022/07/09 04:51:59;;;;;;;3.53;2.03;;;;;;;21.63;51.55;102671.22;5065261;28;20025;-61
2022/07/09 04:54:25;;;;;;;2.30;1.73;;;;;;;21.41;51.61;102629.06;5066400;28;20382;-61
2022/07/09 04:56:50;;;;;;;3.10;1.95;;;;;;;21.63;51.84;102661.22;5064923;28;20029;-61
2022/07/09 04:59:15;;;;;;;4.72;2.47;;;;;;;21.63;52.01;102663.09;5066115;28;20067;-61
2022/07/09 05:01:40;;;;;;;2.22;1.85;;;;;;;21.62;51.86;102662.22;5065013;28;20021;-61
2022/07/09 05:04:06;;;;;;;5.13;2.50;;;;;;;21.63;52.05;102661.22;5065482;28;20037;-61
2022/07/09 05:06:31;;;;;;;3.55;1.95;;;;;;;21.63;52.22;102663.09;5058113;28;20024;-61
2022/07/09 05:08:56;;;;;;;3.17;2.10;;;;;;;21.41;51.98;102624.50;5045761;28;20052;-61
2022/07/09 05:11:21;;;;;;;4.10;2.35;;;;;;;21.64;52.39;102662.94;5074482;28;20032;-60
2022/07/09 05:13:47;;;;;;;3.33;2.25;;;;;;;21.63;51.93;102663.94;5084482;28;20470;-60
2022/07/09 05:16:12;;;;;;;4.22;2.55;;;;;;;21.64;52.20;102665.63;5085906;28;20039;-61
2022/07/09 05:18:37;;;;;;;4.10;2.35;;;;;;;21.63;52.42;102663.09;5084006;28;20031;-60
2022/07/09 05:21:03;;;;;;;2.80;2.33;;;;;;;21.64;52.13;102668.34;5086042;28;20475;-60
2022/07/09 05:23:28;;;;;;;3.50;2.17;;;;;;;21.65;52.22;102669.19;5084229;28;20486;-60
2022/07/09 05:25:54;;;;;;;2.15;1.80;;;;;;;21.64;52.52;102671.03;5085697;28;20481;-60
2022/07/09 05:28:19;;;;;;;3.22;2.10;;;;;;;21.66;52.25;102669.06;5085163;28;20033;-60
2022/07/09 05:30:44;;;;;;;4.50;2.95;;;;;;;21.66;52.26;102666.38;5085352;28;20064;-60
2022/07/09 05:33:10;;;;;;;4.47;2.20;;;;;;;21.44;52.54;102629.59;5083829;28;20021;-60
2022/07/09 05:35:35;;;;;;;3.60;2.17;;;;;;;21.67;52.29;102670.78;5084401;28;20025;-60
2022/07/09 05:38:00;;;;;;;2.70;1.92;;;;;;;21.68;52.36;102663.50;5085093;28;20329;-60
2022/07/09 05:40:26;;;;;;;3.88;2.10;;;;;;;21.48;52.32;102630.19;5085600;28;20039;-60
2022/07/09 05:42:51;;;;;;;2.90;2.17;;;;;;;21.45;52.61;102627.75;5083559;28;20047;-60
2022/07/09 05:45:16;;;;;;;2.88;2.17;;;;;;;21.68;52.84;102663.50;5084423;28;20032;-60
2022/07/09 05:47:42;;;;;;;4.72;2.30;;;;;;;21.68;52.84;102667.06;5083154;28;20032;-60
2022/07/09 05:50:08;;;;;;;3.47;2.30;;;;;;;21.67;52.53;102670.78;5085539;28;20020;-60
2022/07/09 05:52:33;;;;;;;3.55;2.25;;;;;;;21.66;53.03;102662.78;5083815;28;20067;-61
2022/07/09 05:54:59;;;;;;;4.28;2.83;;;;;;;21.66;52.63;102663.66;5085645;28;20028;-59
2022/07/09 05:57:24;;;;;;;2.60;2.20;;;;;;;21.68;53.01;102669.75;5083768;28;20027;-60
2022/07/09 05:59:49;;;;;;;3.42;2.38;;;;;;;21.68;53.04;102675.19;5084097;28;20060;-59
2022/07/09 06:02:14;;;;;;;3.63;2.47;;;;;;;21.68;53.19;102667.06;5083416;28;20020;-60
2022/07/09 06:04:40;;;;;;;3.58;2.20;;;;;;;21.67;53.00;102659.09;5085206;28;20031;-60
2022/07/09 06:07:05;;;;;;;4.07;2.65;;;;;;;21.70;53.12;102669.59;5083697;28;20060;-59
2022/07/09 06:09:30;;;;;;;4.43;2.40;;;;;;;21.72;53.24;102667.63;5084965;28;20439;-60
2022/07/09 06:11:56;;;;;;;3.45;2.10;;;;;;;21.71;53.29;102664.06;5065388;28;20028;-60
2022/07/09 06:14:21;;;;;;;2.92;2.25;;;;;;;21.72;53.17;102659.50;5064021;28;20032;-60
2022/07/09 06:16:47;;;;;;;4.22;2.63;;;;;;;21.73;53.03;102657.66;5064777;28;20029;-59
2022/07/09 06:19:13;;;;;;;3.00;1.80;;;;;;;21.72;53.05;102662.22;5064421;28;20084;-60
2022/07/09 06:21:38;;;;;;;3.17;2.00;;;;;;;21.73;53.11;102669.31;5064819;28;20454;-61
2022/07/09 06:24:05;;;;;;;2.72;1.92;;;;;;;21.74;53.18;102670.19;5067968;28;20025;-61
2022/07/09 06:26:31;;;;;;;2.85;2.35;;;;;;;21.74;53.42;102676.44;5074722;28;20091;-61
2022/07/09 06:28:56;;;;;;;3.20;1.92;;;;;;;21.74;53.24;102673.75;5070133;28;20032;-61
2022/07/09 06:31:21;;;;;;;3.92;2.33;;;;;;;21.63;53.19;102653.09;5065003;28;20028;-61
2022/07/09 06:33:46;;;;;;;3.35;1.90;;;;;;;21.73;53.58;102666.63;5080926;28;20036;-60
2022/07/09 06:36:12;;;;;;;2.60;1.95;;;;;;;21.74;53.08;102662.91;5085184;28;20024;-60
2022/07/09 06:39:44;;;;;;;3.10;1.98;;;;;;;21.54;53.48;102629.63;5084441;28;20460;-60
2022/07/09 06:41:22;;;;;;;3.22;1.92;;;;;;;21.75;53.28;102667.34;5074612;28;20029;-60
2022/07/09 06:43:47;;;;;;;2.92;1.90;;;;;;;21.76;53.67;102666.34;5066856;28;20245;-60
2022/07/09 06:46:13;;;;;;;2.45;2.00;;;;;;;21.75;53.41;102670.06;5067871;28;20055;-60
2022/07/09 06:48:38;;;;;;;2.42;1.75;;;;;;;21.73;53.32;102661.22;5068241;28;20100;-60
2022/07/09 06:51:03;;;;;;;3.92;2.30;;;;;;;21.72;53.58;102645.97;5067590;28;20028;-60
2022/07/09 06:53:29;;;;;;;2.08;1.70;;;;;;;21.58;53.64;102647.28;5068518;28;20037;-60
2022/07/09 06:55:54;;;;;;;2.17;1.60;;;;;;;21.78;53.46;102685.13;5067569;28;20031;-60
2022/07/09 06:58:19;;;;;;;2.65;2.00;;;;;;;21.78;53.65;102677.88;5076077;28;20062;-60
2022/07/09 07:00:44;;;;;;;3.45;1.90;;;;;;;21.79;53.56;102679.59;5088186;28;20664;-60
2022/07/09 07:03:09;;;;;;;2.75;1.88;;;;;;;21.79;52.96;102681.41;5088104;28;20079;-60
2022/07/09 07:05:35;;;;;;;2.90;1.65;;;;;;;21.80;53.81;102669.63;5087544;28;20035;-60
2022/07/09 07:08:00;;;;;;;2.67;1.63;;;;;;;21.60;53.53;102639.00;5088101;28;20115;-60
2022/07/09 07:10:25;;;;;;;3.67;1.63;;;;;;;21.81;53.55;102663.19;5087547;28;20028;-60
2022/07/09 07:12:50;;;;;;;3.00;1.83;;;;;;;21.82;53.92;102654.06;5087960;28;20088;-60
2022/07/09 07:15:16;;;;;;;1.63;1.35;;;;;;;21.79;53.79;102652.53;5070725;28;20024;-60
2022/07/09 07:17:41;;;;;;;2.28;1.77;;;;;;;21.63;53.58;102625.19;5087484;28;20036;-60
2022/07/09 07:20:07;;;;;;;2.38;1.65;;;;;;;21.84;53.37;102660.19;5070555;28;20092;-60
2022/07/09 07:22:32;;;;;;;3.30;1.50;;;;;;;21.84;53.68;102661.06;5088236;28;20098;-60
2022/07/09 07:24:57;;;;;;;2.25;1.60;;;;;;;21.86;53.59;102669.88;5088191;28;20052;-60
2022/07/09 07:27:22;;;;;;;2.15;1.15;;;;;;;21.86;53.53;102666.31;5087893;28;20033;-60
2022/07/09 07:29:48;;;;;;;3.42;1.35;;;;;;;21.89;53.68;102668.75;5086725;28;20028;-60
2022/07/09 07:32:13;;;;;;;1.63;1.20;;;;;;;21.52;53.06;102604.53;5080609;28;20143;-60
2022/07/09 07:34:38;;;;;;;2.20;1.77;;;;;;;21.73;53.43;102641.41;5067869;28;20024;-60
2022/07/09 07:37:04;;;;;;;2.33;1.35;;;;;;;21.72;53.04;102627.00;5067968;28;20032;-60
2022/07/09 07:39:29;;;;;;;2.55;1.13;;;;;;;21.71;52.61;102634.28;5067392;28;20565;-60
2022/07/09 07:41:55;;;;;;;1.73;1.35;;;;;;;21.86;52.66;102650.06;5049863;28;20029;-60
2022/07/09 07:44:20;;;;;;;2.13;1.40;;;;;;;21.91;52.64;102642.34;5067716;28;20045;-60
2022/07/09 07:46:46;;;;;;;1.70;1.40;;;;;;;21.91;52.50;102647.75;5067867;28;20099;-60
2022/07/09 07:49:11;;;;;;;3.10;1.13;;;;;;;21.92;52.43;102647.63;5067226;28;20031;-60
2022/07/09 07:51:36;;;;;;;1.55;1.25;;;;;;;21.93;52.27;102645.78;5066595;28;20124;-60
2022/07/09 07:54:01;;;;;;;1.65;1.17;;;;;;;21.94;51.82;102642.06;5067154;28;20028;-60
2022/07/09 07:56:27;;;;;;;2.30;1.40;;;;;;;21.76;52.07;102614.91;5067434;28;20025;-60
2022/07/09 07:58:52;;;;;;;1.92;1.38;;;;;;;21.75;52.22;102609.59;5066182;28;20115;-60
2022/07/09 08:01:17;;;;;;;1.48;1.27;;;;;;;21.93;52.21;102641.22;5066363;28;20032;-60
2022/07/09 08:03:42;;;;;;;1.10;1.00;;;;;;;21.96;52.28;102648.19;5066861;28;20020;-60
2022/07/09 08:06:07;;;;;;;1.60;1.20;;;;;;;21.76;52.21;102612.19;5066370;28;20031;-60
2022/07/09 08:08:33;;;;;;;3.08;1.23;;;;;;;21.93;52.16;102640.38;5066853;28;20029;-60
2022/07/09 08:10:59;;;;;;;1.60;1.05;;;;;;;21.94;52.45;102637.50;5067447;28;20056;-60
2022/07/09 08:13:25;;;;;;;1.88;1.00;;;;;;;21.96;52.34;102648.19;5065646;28;20033;-60
2022/07/09 08:15:50;;;;;;;1.60;1.17;;;;;;;21.94;52.02;102639.34;5049602;28;20453;-60
2022/07/09 08:18:16;;;;;;;1.83;1.20;;;;;;;21.95;52.06;102638.34;5066637;28;20029;-60
2022/07/09 08:20:42;;;;;;;1.55;1.10;;;;;;;21.94;51.90;102634.78;5049277;28;20032;-60
2022/07/09 08:23:07;;;;;;;1.38;1.00;;;;;;;21.75;51.85;102602.38;5065961;28;20123;-60
2022/07/09 08:25:33;;;;;;;2.08;1.27;;;;;;;21.94;51.78;102634.78;5065959;28;20037;-60
2022/07/09 08:27:58;;;;;;;1.23;0.88;;;;;;;21.74;51.96;102597.06;5065612;28;20032;-60
2022/07/09 08:30:23;;;;;;;1.55;0.90;;;;;;;21.95;52.09;102633.78;5065832;28;20084;-60
2022/07/09 08:32:48;;;;;;;1.85;1.10;;;;;;;21.91;52.03;102615.28;5078742;28;20036;-60
2022/07/09 08:35:14;;;;;;;1.70;1.10;;;;;;;21.92;51.98;102617.00;5087206;28;20025;-60
2022/07/09 08:37:39;;;;;;;1.98;1.20;;;;;;;21.96;51.91;102621.09;5086516;28;20025;-60
2022/07/09 08:40:06;;;;;;;1.70;1.02;;;;;;;21.96;51.82;102624.69;5086571;28;20036;-60
2022/07/09 08:42:31;;;;;;;1.00;0.90;;;;;;;21.96;52.03;102624.69;5085195;28;20031;-60
2022/07/09 08:44:57;;;;;;;1.73;1.08;;;;;;;21.79;51.96;102597.47;5085574;28;20044;-60
2022/07/09 08:47:22;;;;;;;2.03;1.00;;;;;;;;;;5084794;28;20028;-60
2022/07/09 08:49:48;;;;;;;1.88;0.85;;;;;;;21.95;51.81;102622.09;5084801;28;20044;-60
2022/07/09 08:52:15;;;;;;;1.98;1.05;;;;;;;21.96;51.87;102626.50;5068522;28;20021;-60
2022/07/09 08:54:42;;;;;;;1.08;0.90;;;;;;;;;;5085363;28;20036;-60
2022/07/09 08:57:07;;;;;;;1.13;0.93;;;;;;;21.77;51.74;102592.22;5086492;28;20035;-60
2022/07/09 08:59:33;;;;;;;1.75;1.00;;;;;;;21.96;52.03;102621.09;5085024;28;20029;-60
2022/07/09 09:02:03;;;;;;;2.03;1.00;;;;;;;21.95;51.81;102619.41;5086646;28;20031;-60
2022/07/09 09:04:28;;;;;;;0.93;0.70;;;;;;;21.96;51.76;102623.81;5084407;28;20024;-60
2022/07/09 09:06:54;;;;;;;1.83;0.90;;;;;;;21.76;51.43;102604.06;5086191;28;20081;-60
2022/07/09 09:09:19;;;;;;;1.10;0.88;;;;;;;21.95;52.27;102632.94;5084979;28;20056;-60
2022/07/09 09:11:48;;;;;;;1.13;0.85;;;;;;;21.95;51.85;102639.19;5084543;28;20024;-60
2022/07/09 09:14:20;;;;;;;1.58;0.98;;;;;;;21.95;51.83;102631.06;5086296;28;20024;-60
2022/07/09 09:16:45;;;;;;;1.15;1.05;;;;;;;21.73;51.82;102595.38;5068220;28;20035;-60
2022/07/09 09:19:10;;;;;;;2.90;1.25;;;;;;;21.94;52.19;102623.97;5085833;28;20088;-60
2022/07/09 09:21:37;;;;;;;1.38;1.00;;;;;;;21.95;51.77;102631.06;5084951;28;20051;-60
2022/07/09 09:24:03;;;;;;;1.38;1.05;;;;;;;21.74;52.03;102595.22;5085887;28;20031;-60
2022/07/09 09:26:28;;;;;;;1.17;1.00;;;;;;;21.75;52.22;102605.06;5084217;28;20025;-60
2022/07/09 09:28:54;;;;;;;1.27;0.88;;;;;;;21.96;51.79;102632.81;5067741;28;20020;-60
2022/07/09 09:31:20;;;;;;;1.85;0.90;;;;;;;21.99;51.87;102636.19;5084818;28;20058;-60
2022/07/09 09:33:46;;;;;;;1.20;0.80;;;;;;;21.99;51.88;102639.75;5045287;28;20029;-60
2022/07/09 09:36:11;;;;;;;0.73;0.73;;;;;;;22.00;51.98;102632.50;5044706;28;20060;-60
2022/07/09 09:38:36;;;;;;;1.63;1.00;;;;;;;22.01;51.92;102634.22;5044243;28;20026;-60
2022/07/09 09:41:02;;;;;;;1.77;1.23;;;;;;;22.01;51.65;102640.50;5045746;28;20021;-60
2022/07/09 09:43:27;;;;;;;1.27;1.17;;;;;;;22.02;51.74;102641.34;5045119;28;20039;-60
2022/07/09 09:45:56;;;;;;;1.25;0.80;;;;;;;22.02;51.59;102642.19;5044587;28;20029;-60
2022/07/09 09:48:22;;;;;;;;;;;;;;;22.02;51.97;102649.47;5045422;28;20056;-60
2022/07/09 09:50:48;;;;;;;1.52;0.98;;;;;;;22.02;51.96;102646.75;5045418;28;19909;-60
2022/07/09 09:53:14;;;;;;;2.10;0.98;;;;;;;22.02;51.85;102649.47;5044055;28;20081;-60
2022/07/09 09:55:40;;;;;;;1.23;0.77;;;;;;;22.00;51.71;102641.47;5044185;28;20025;-60
2022/07/09 09:58:06;;;;;;;1.58;1.05;;;;;;;22.02;51.83;102654.88;5043851;28;20028;-60
2022/07/09 10:00:31;;;;;;;1.73;0.80;;;;;;;22.02;51.71;102650.31;5044059;28;20021;-60
2022/07/09 10:02:57;;;;;;;1.30;0.82;;;;;;;22.02;51.77;102647.59;5045061;28;20048;-60
2022/07/09 10:05:22;;;;;;;1.83;0.90;;;;;;;21.81;51.86;102615.31;5044035;28;20490;-60
2022/07/09 10:07:47;;;;;;;1.33;0.98;;;;;;;22.03;51.91;102656.56;5045260;28;20025;-60
2022/07/09 10:10:18;;;;;;;1.00;0.77;;;;;;;22.05;51.69;102651.88;5044110;28;20087;-60
2022/07/09 10:12:43;;;;;;;2.63;1.00;;;;;;;21.81;51.71;102604.47;5044915;28;20021;-60
2022/07/09 10:15:26;;;;;;;1.35;0.80;;;;;;;22.07;51.65;102650.72;5043982;28;20508;-60
2022/07/09 10:17:52;;;;;;;1.38;0.88;;;;;;;22.06;51.55;102649.03;5043451;28;20029;-59
2022/07/09 10:20:17;;;;;;;1.23;0.98;;;;;;;22.07;51.87;102649.88;5044004;28;20025;-60
2022/07/09 10:22:48;;;;;;;2.22;0.88;;;;;;;22.07;51.75;102658.00;5044975;28;20025;-60
2022/07/09 10:25:27;;;;;;;1.67;0.95;;;;;;;21.85;51.82;102618.56;5043766;28;20022;-60
2022/07/09 10:27:52;;;;;;;1.80;0.95;;;;;;;21.86;51.57;102626.53;5044832;28;20029;-61
2022/07/09 10:30:30;;;;;;;1.25;1.00;;;;;;;22.07;51.78;102653.44;5045090;28;20029;-61
2022/07/09 10:33:06;;;;;;;1.50;0.90;;;;;;;22.09;51.68;102655.97;5069930;28;20025;-61
2022/07/09 10:35:45;;;;;;;1.48;0.60;;;;;;;22.10;51.68;102655.00;5085312;28;20040;-61
2022/07/09 10:38:11;;;;;;;0.88;0.80;;;;;;;22.11;51.67;102648.56;5066634;28;20024;-61
2022/07/09 10:40:38;;;;;;;0.90;0.70;;;;;;;22.12;51.62;102652.97;5083803;28;20027;-61
2022/07/09 10:43:04;;;;;;;1.65;1.00;;;;;;;22.13;51.81;102654.72;5084428;28;20473;-61
2022/07/09 10:45:40;;;;;;;1.95;1.00;;;;;;;22.14;51.61;102648.31;5084107;28;20261;-60
2022/07/09 10:48:07;;;;;;;1.02;0.80;;;;;;;21.94;51.42;102618.53;5083229;28;20039;-60
2022/07/09 10:50:37;;;;;;;1.40;0.73;;;;;;;22.14;51.45;102645.59;5083445;28;20035;-61
2022/07/09 10:53:03;;;;;;;1.45;1.00;;;;;;;22.14;51.55;102648.31;5083498;28;20050;-61
2022/07/09 10:55:29;;;;;;;1.13;0.80;;;;;;;22.16;51.51;102649.00;5084815;28;20040;-61
2022/07/09 10:57:54;;;;;;;1.33;0.70;;;;;;;22.16;51.34;102649.00;5083180;28;20032;-61
2022/07/09 11:00:22;;;;;;;1.48;0.85;;;;;;;22.18;51.37;102653.28;5083684;28;20068;-61
2022/07/09 11:02:54;;;;;;;0.90;0.70;;;;;;;;;;5082805;28;20036;-61
2022/07/09 11:05:20;;;;;;;0.73;0.68;;;;;;;22.20;51.16;102663.97;5084985;28;20028;-61
2022/07/09 11:07:55;;;;;;;1.17;0.82;;;;;;;22.21;51.25;102649.41;5084430;28;20024;-60
2022/07/09 11:10:20;;;;;;;1.33;0.90;;;;;;;22.21;51.23;102655.69;5084806;28;20036;-61
2022/07/09 11:12:49;;;;;;;1.02;0.80;;;;;;;22.00;51.24;102621.66;5082887;28;20456;-60
2022/07/09 11:15:18;;;;;;;2.20;0.80;;;;;;;22.24;51.35;102650.97;5084733;28;20025;-61
2022/07/09 11:17:43;;;;;;;1.20;0.88;;;;;;;22.22;51.30;102643.03;5082758;28;20036;-61
2022/07/09 11:20:11;;;;;;;0.80;0.70;;;;;;;22.18;51.32;102639.75;5066544;28;20024;-61